Time;durP1;ratioP1;P1;durP2;ratioP2;P2;SDS_P1;SDS_P2;PMS_P1;PMS_P2;Temp;Humidity;BMP_temperature;BMP_pressure;BME280_temperature;BME280_humidity;BME280_pressure;Samples;Min_cycle;Max_cycle;Signal;HPM_P1;HPM_P2
2022/11/25 00:01:22;;;;;;;14.43;12.27;;;;;;;;;;4965253;28;20632;-88
2022/11/25 00:03:50;;;;;;;14.63;11.83;;;;;;;;;;4966396;28;20222;-86
2022/11/25 00:06:23;;;;;;;12.67;11.23;;;;;;;;;;4987417;28;20223;-85
2022/11/25 00:09:06;;;;;;;17.80;14.00;;;;;;;;;;4972367;28;20225;-88
2022/11/25 00:11:34;;;;;;;16.27;13.97;;;;;;;;;;4970510;28;20224;-87
2022/11/25 00:14:05;;;;;;;18.20;13.90;;;;;;;;;;4949053;28;20233;-86
2022/11/25 00:16:32;;;;;;;17.27;14.63;;;;;;;;;;4972939;28;20308;-86
2022/11/25 00:18:58;;;;;;;24.33;15.63;;;;;;;;;;4960216;28;20217;-86
2022/11/25 00:21:27;;;;;;;16.20;14.60;;;;;;;;;;4990164;28;20244;-86
2022/11/25 00:23:54;;;;;;;15.77;14.13;;;;;;;;;;5011394;28;20224;-85
2022/11/25 00:26:20;;;;;;;18.97;16.23;;;;;;;;;;4947676;28;20246;-85
2022/11/25 00:28:46;;;;;;;16.87;14.77;;;;;;;;;;4956993;28;20233;-85
2022/11/25 00:31:22;;;;;;;19.23;15.20;;;;;;;;;;4962555;28;20291;-85
2022/11/25 00:33:50;;;;;;;18.03;14.73;;;;;;;;;;4976704;28;20300;-83
2022/11/25 00:36:22;;;;;;;18.73;13.93;;;;;;;;;;4952209;28;20221;-84
2022/11/25 00:38:57;;;;;;;16.50;14.80;;;;;;;;;;4992460;28;20264;-86
2022/11/25 00:46:57;;;;;;;19.97;16.03;;;;;;;;;;4969947;28;20236;-84
2022/11/25 00:49:22;;;;;;;19.33;15.67;;;;;;;;;;4957608;28;20236;-84
2022/11/25 00:51:48;;;;;;;18.60;15.90;;;;;;;;;;4954331;28;20229;-84
2022/11/25 00:54:13;;;;;;;21.17;16.73;;;;;;;;;;4964109;28;20226;-84
2022/11/25 00:56:39;;;;;;;26.20;16.43;;;;;;;;;;4956918;28;20225;-85
2022/11/25 00:59:06;;;;;;;20.50;15.63;;;;;;;;;;4955421;28;20224;-84
2022/11/25 01:01:31;;;;;;;21.00;17.03;;;;;;;;;;4958560;28;20221;-83
2022/11/25 01:03:59;;;;;;;20.70;17.70;;;;;;;;;;4961370;28;20232;-84
2022/11/25 01:06:25;;;;;;;21.07;17.80;;;;;;;;;;4952752;28;20230;-86
2022/11/25 01:08:52;;;;;;;18.57;16.63;;;;;;;;;;4952425;28;21007;-85
2022/11/25 01:11:20;;;;;;;21.27;17.47;;;;;;;;;;4954572;28;20430;-86
2022/11/25 01:13:46;;;;;;;24.50;17.10;;;;;;;;;;4982488;28;20229;-85
2022/11/25 01:16:14;;;;;;;23.17;18.43;;;;;;;;;;4955775;28;20312;-86
2022/11/25 01:18:40;;;;;;;21.93;17.57;;;;;;;;;;4963618;28;20230;-87
2022/11/25 01:21:11;;;;;;;25.03;18.50;;;;;;;;;;4947294;28;20225;-86
2022/11/25 01:23:36;;;;;;;22.23;18.70;;;;;;;;;;4950448;28;20213;-86
2022/11/25 01:26:05;;;;;;;25.90;18.67;;;;;;;;;;4956092;28;20217;-85
2022/11/25 01:28:33;;;;;;;24.57;18.57;;;;;;;;;;4979116;28;20613;-86
2022/11/25 01:31:06;;;;;;;26.53;17.13;;;;;;;;;;4964537;28;20229;-83
2022/11/25 01:33:32;;;;;;;22.80;18.80;;;;;;;;;;4955869;28;20264;-84
2022/11/25 01:36:02;;;;;;;23.00;19.23;;;;;;;;;;4964970;28;20316;-85
2022/11/25 01:38:27;;;;;;;24.87;19.87;;;;;;;;;;4950909;28;20224;-86
2022/11/25 01:40:55;;;;;;;26.93;19.37;;;;;;;;;;4957023;28;20922;-87
2022/11/25 01:43:21;;;;;;;21.80;18.50;;;;;;;;;;4960169;28;20230;-87
2022/11/25 01:45:46;;;;;;;23.70;18.23;;;;;;;;;;4959814;28;20229;-87
2022/11/25 01:48:27;;;;;;;19.77;17.67;;;;;;;;;;4959181;28;20908;-86
2022/11/25 01:50:52;;;;;;;21.93;18.17;;;;;;;;;;4975631;28;20233;-87
2022/11/25 01:53:19;;;;;;;21.97;17.50;;;;;;;;;;4960399;28;20230;-87
2022/11/25 01:55:50;;;;;;;23.87;17.40;;;;;;;;;;4992885;28;20226;-87
2022/11/25 01:58:25;;;;;;;25.77;17.73;;;;;;;;;;4983803;28;20232;-84
2022/11/25 02:00:52;;;;;;;20.30;15.97;;;;;;;;;;4981567;28;20601;-89
2022/11/25 02:03:28;;;;;;;20.70;16.90;;;;;;;;;;4960928;28;20230;-89
2022/11/25 02:05:56;;;;;;;19.27;16.53;;;;;;;;;;4977099;28;20321;-86
2022/11/25 02:08:24;;;;;;;20.67;16.60;;;;;;;;;;4998985;28;20260;-87
2022/11/25 02:10:51;;;;;;;26.73;17.23;;;;;;;;;;4965326;28;20229;-87
2022/11/25 02:13:16;;;;;;;22.20;18.10;;;;;;;;;;4947620;28;20226;-86
2022/11/25 02:15:42;;;;;;;17.57;15.60;;;;;;;;;;4948314;28;20677;-86
2022/11/25 02:18:08;;;;;;;17.63;14.93;;;;;;;;;;4963572;28;20287;-87
2022/11/25 02:20:33;;;;;;;19.67;16.00;;;;;;;;;;4964245;28;20592;-84
2022/11/25 02:23:05;;;;;;;18.50;15.43;;;;;;;;;;4962158;28;20230;-87
2022/11/25 02:25:33;;;;;;;18.47;15.63;;;;;;;;;;4976702;28;20230;-86
2022/11/25 02:28:02;;;;;;;20.43;16.17;;;;;;;;;;4977989;28;20226;-87
2022/11/25 02:30:28;;;;;;;17.70;15.10;;;;;;;;;;4976972;28;20238;-87
2022/11/25 02:32:53;;;;;;;17.73;15.00;;;;;;;;;;4979883;28;20228;-87
2022/11/25 02:35:29;;;;;;;22.57;15.17;;;;;;;;;;4962144;28;20711;-87
2022/11/25 02:38:00;;;;;;;19.47;14.27;;;;;;;;;;4979016;28;20234;-87
2022/11/25 02:40:26;;;;;;;15.47;13.60;;;;;;;;;;4978041;28;20221;-86
2022/11/25 02:42:52;;;;;;;17.87;13.87;;;;;;;;;;4961906;28;20304;-86
2022/11/25 02:45:20;;;;;;;16.43;14.17;;;;;;;;;;4964099;28;20218;-88
2022/11/25 02:47:45;;;;;;;19.40;13.47;;;;;;;;;;4964330;28;20237;-85
2022/11/25 02:50:12;;;;;;;19.60;14.83;;;;;;;;;;4983158;28;20237;-86
2022/11/25 02:52:38;;;;;;;16.50;13.83;;;;;;;;;;4984928;28;20267;-88
2022/11/25 02:55:04;;;;;;;16.33;13.73;;;;;;;;;;4955284;28;20656;-86
2022/11/25 02:57:30;;;;;;;18.00;14.93;;;;;;;;;;4967029;28;20294;-85
2022/11/25 02:59:56;;;;;;;17.63;13.97;;;;;;;;;;4968075;28;20312;-85
2022/11/25 03:02:23;;;;;;;17.27;13.63;;;;;;;;;;4948293;28;20233;-86
2022/11/25 03:04:48;;;;;;;20.80;14.67;;;;;;;;;;4948883;28;20244;-86
2022/11/25 03:07:14;;;;;;;20.57;13.47;;;;;;;;;;4947311;28;20296;-86
2022/11/25 03:09:42;;;;;;;16.23;13.30;;;;;;;;;;4947387;28;20710;-86
2022/11/25 03:12:20;;;;;;;17.27;13.50;;;;;;;;;;4947561;28;20598;-86
2022/11/25 03:14:46;;;;;;;17.13;13.13;;;;;;;;;;4950974;28;20229;-85
2022/11/25 03:17:13;;;;;;;18.07;13.27;;;;;;;;;;4947932;28;20225;-87
2022/11/25 03:19:40;;;;;;;17.00;12.33;;;;;;;;;;4947390;28;20280;-87
2022/11/25 03:22:06;;;;;;;18.43;12.77;;;;;;;;;;4947799;28;20300;-86
2022/11/25 03:24:34;;;;;;;17.57;12.37;;;;;;;;;;4948106;28;20612;-87
2022/11/25 03:27:00;;;;;;;21.47;13.03;;;;;;;;;;4949769;28;20232;-87
2022/11/25 03:29:26;;;;;;;14.37;11.83;;;;;;;;;;4962207;28;20255;-86
2022/11/25 03:31:54;;;;;;;18.37;12.30;;;;;;;;;;4986938;28;20232;-86
2022/11/25 03:34:22;;;;;;;19.80;12.50;;;;;;;;;;4968923;28;20251;-87
2022/11/25 03:36:48;;;;;;;14.27;11.33;;;;;;;;;;4968012;28;20228;-87
2022/11/25 03:39:16;;;;;;;15.33;11.40;;;;;;;;;;4981572;28;20224;-88
2022/11/25 03:41:42;;;;;;;15.13;11.33;;;;;;;;;;4980357;28;20247;-85
2022/11/25 03:44:09;;;;;;;16.47;11.80;;;;;;;;;;4978900;28;20212;-86
2022/11/25 03:46:37;;;;;;;15.50;11.90;;;;;;;;;;4975173;28;20225;-88
2022/11/25 03:49:08;;;;;;;14.73;12.43;;;;;;;;;;4979243;28;20711;-86
2022/11/25 03:51:36;;;;;;;18.20;12.43;;;;;;;;;;4971888;28;20221;-85
2022/11/25 03:54:02;;;;;;;19.67;11.80;;;;;;;;;;4958965;28;20245;-86
2022/11/25 03:56:33;;;;;;;15.47;11.17;;;;;;;;;;4950407;28;20229;-85
2022/11/25 03:58:59;;;;;;;18.73;11.73;;;;;;;;;;4981355;28;20937;-86
2022/11/25 04:01:28;;;;;;;17.20;11.57;;;;;;;;;;4980480;28;20225;-87
2022/11/25 04:03:55;;;;;;;18.60;12.00;;;;;;;;;;4996521;28;20275;-87
2022/11/25 04:06:22;;;;;;;14.80;11.37;;;;;;;;;;4995603;28;20230;-87
2022/11/25 04:08:52;;;;;;;18.13;11.87;;;;;;;;;;4993920;28;20700;-87
2022/11/25 04:11:18;;;;;;;19.53;11.23;;;;;;;;;;4963195;28;20272;-85
2022/11/25 04:13:48;;;;;;;17.00;10.97;;;;;;;;;;4981401;28;20233;-86
2022/11/25 04:16:22;;;;;;;14.20;11.17;;;;;;;;;;4984073;28;20617;-86
2022/11/25 04:18:49;;;;;;;14.77;11.23;;;;;;;;;;4969754;28;20235;-87
2022/11/25 04:21:15;;;;;;;16.50;10.97;;;;;;;;;;4966256;28;20225;-86
2022/11/25 04:23:41;;;;;;;15.70;10.60;;;;;;;;;;4952269;28;20225;-86
2022/11/25 04:26:20;;;;;;;17.53;11.40;;;;;;;;;;4967288;28;20255;-85
2022/11/25 04:28:46;;;;;;;14.80;10.20;;;;;;;;;;4980855;28;20230;-87
2022/11/25 04:31:12;;;;;;;20.27;11.97;;;;;;;;;;4993670;28;20261;-86
2022/11/25 04:33:41;;;;;;;14.70;10.10;;;;;;;;;;4966636;28;20261;-85
2022/11/25 04:36:09;;;;;;;16.47;11.40;;;;;;;;;;4964779;28;20225;-85
2022/11/25 04:38:35;;;;;;;17.87;12.03;;;;;;;;;;4982448;28;20245;-86
2022/11/25 04:41:02;;;;;;;18.20;12.17;;;;;;;;;;4951465;28;20600;-86
2022/11/25 04:43:32;;;;;;;17.70;13.37;;;;;;;;;;4969829;28;20237;-86
2022/11/25 04:46:08;;;;;;;16.77;12.60;;;;;;;;;;4967897;28;20328;-87
2022/11/25 04:48:35;;;;;;;13.73;10.70;;;;;;;;;;4972005;28;20715;-86
2022/11/25 04:51:02;;;;;;;15.43;10.33;;;;;;;;;;4967343;28;20236;-85
2022/11/25 04:53:28;;;;;;;20.73;10.73;;;;;;;;;;4960805;28;20695;-85
2022/11/25 04:55:54;;;;;;;16.60;9.17;;;;;;;;;;4974314;28;20225;-87
2022/11/25 05:01:07;;;;;;;11.20;8.57;;;;;;;;;;4977499;28;20665;-86
2022/11/25 05:03:36;;;;;;;11.03;8.23;;;;;;;;;;4982815;28;20226;-86
2022/11/25 05:06:08;;;;;;;11.90;7.57;;;;;;;;;;4947972;28;20233;-85
2022/11/25 05:08:35;;;;;;;14.53;8.57;;;;;;;;;;4962491;28;20240;-86
2022/11/25 05:11:01;;;;;;;10.63;7.60;;;;;;;;;;4983195;28;20759;-87
2022/11/25 05:13:29;;;;;;;14.90;8.07;;;;;;;;;;4984921;28;20289;-85
2022/11/25 05:15:57;;;;;;;13.17;8.43;;;;;;;;;;4991239;28;20268;-87
2022/11/25 05:18:23;;;;;;;13.20;8.27;;;;;;;;;;4967436;28;20223;-86
2022/11/25 05:20:49;;;;;;;12.63;7.83;;;;;;;;;;4985861;28;20228;-87
2022/11/25 05:23:19;;;;;;;13.27;7.67;;;;;;;;;;4969394;28;20251;-87
2022/11/25 05:25:47;;;;;;;10.67;7.80;;;;;;;;;;4970397;28;20224;-86
2022/11/25 05:28:32;;;;;;;15.60;8.30;;;;;;;;;;4975457;28;20280;-86
2022/11/25 05:30:59;;;;;;;10.80;8.13;;;;;;;;;;4971405;28;20233;-86
2022/11/25 05:33:27;;;;;;;11.50;7.70;;;;;;;;;;4967915;28;20565;-86
2022/11/25 05:35:57;;;;;;;9.43;6.97;;;;;;;;;;4998979;28;20237;-86
2022/11/25 05:38:30;;;;;;;13.00;7.50;;;;;;;;;;4998766;28;20237;-86
2022/11/25 05:41:01;;;;;;;8.17;6.30;;;;;;;;;;4957296;28;20217;-86
2022/11/25 05:43:27;;;;;;;13.10;7.03;;;;;;;;;;4972388;28;20225;-87
2022/11/25 05:45:53;;;;;;;12.67;7.23;;;;;;;;;;4955879;28;20597;-87
2022/11/25 05:48:25;;;;;;;11.93;7.63;;;;;;;;;;4954176;28;20304;-85
2022/11/25 05:50:53;;;;;;;12.93;7.10;;;;;;;;;;4954422;28;20603;-87
2022/11/25 05:53:24;;;;;;;10.50;6.80;;;;;;;;;;4981190;28;20230;-86
2022/11/25 05:55:58;;;;;;;10.87;6.53;;;;;;;;;;4936510;28;20233;-85
2022/11/25 05:58:46;;;;;;;14.30;6.23;;;;;;;;;;4956067;28;20218;-86
2022/11/25 06:01:17;;;;;;;9.60;6.43;;;;;;;;;;4950094;28;20633;-85
2022/11/25 06:03:46;;;;;;;11.37;6.10;;;;;;;;;;4974754;28;20225;-86
2022/11/25 06:06:15;;;;;;;11.63;6.13;;;;;;;;;;4972529;28;20213;-86
2022/11/25 06:08:43;;;;;;;7.97;5.70;;;;;;;;;;4968037;28;20231;-85
2022/11/25 06:11:14;;;;;;;12.27;6.50;;;;;;;;;;4997701;28;20226;-84
2022/11/25 06:13:43;;;;;;;9.57;6.20;;;;;;;;;;4966496;28;20548;-83
2022/11/25 06:16:11;;;;;;;9.73;6.00;;;;;;;;;;4999992;28;20233;-86
2022/11/25 06:18:37;;;;;;;7.50;5.57;;;;;;;;;;5007388;28;20267;-86
2022/11/25 06:21:05;;;;;;;14.60;5.67;;;;;;;;;;4985557;28;20236;-89
2022/11/25 06:23:31;;;;;;;12.70;5.67;;;;;;;;;;4985894;28;20280;-86
2022/11/25 06:26:07;;;;;;;11.50;6.00;;;;;;;;;;4971694;28;20233;-86
2022/11/25 06:28:34;;;;;;;12.70;5.70;;;;;;;;;;4971552;28;20229;-87
2022/11/25 06:31:19;;;;;;;10.57;4.63;;;;;;;;;;4996006;28;20761;-87
2022/11/25 06:33:53;;;;;;;12.63;5.40;;;;;;;;;;4971345;28;20285;-86
2022/11/25 06:36:19;;;;;;;9.30;5.33;;;;;;;;;;4974439;28;20229;-89
2022/11/25 06:38:48;;;;;;;15.27;5.57;;;;;;;;;;4999331;28;20234;-87
2022/11/25 06:41:21;;;;;;;11.87;5.83;;;;;;;;;;4990580;28;20209;-86
2022/11/25 06:43:49;;;;;;;9.37;6.03;;;;;;;;;;4976999;28;20292;-82
2022/11/25 06:46:19;;;;;;;10.17;7.00;;;;;;;;;;4972572;28;20260;-86
2022/11/25 06:48:44;;;;;;;12.43;6.67;;;;;;;;;;4968041;28;20226;-86
2022/11/25 06:51:13;;;;;;;11.47;6.17;;;;;;;;;;4934516;28;20228;-87
2022/11/25 06:53:39;;;;;;;14.57;6.33;;;;;;;;;;4951064;28;20229;-86
2022/11/25 06:56:05;;;;;;;11.73;6.37;;;;;;;;;;4946838;28;20240;-87
2022/11/25 06:58:31;;;;;;;9.97;6.00;;;;;;;;;;5014992;28;20226;-85
2022/11/25 07:01:05;;;;;;;11.63;6.77;;;;;;;;;;4963117;28;20209;-88
2022/11/25 07:03:31;;;;;;;12.73;6.87;;;;;;;;;;4995182;28;20236;-87
2022/11/25 07:05:57;;;;;;;10.57;6.27;;;;;;;;;;4959697;28;20214;-85
2022/11/25 07:08:24;;;;;;;11.87;6.03;;;;;;;;;;4957363;28;20283;-84
2022/11/25 07:10:50;;;;;;;11.37;5.63;;;;;;;;;;4949449;28;20271;-84
2022/11/25 07:13:15;;;;;;;12.70;6.00;;;;;;;;;;4975332;28;20216;-83
2022/11/25 07:15:41;;;;;;;11.27;6.60;;;;;;;;;;4956757;28;20298;-85
2022/11/25 07:18:12;;;;;;;8.20;5.63;;;;;;;;;;4967958;28;20213;-83
2022/11/25 07:20:38;;;;;;;10.83;5.67;;;;;;;;;;4975018;28;20593;-84
2022/11/25 07:23:04;;;;;;;11.47;6.23;;;;;;;;;;4964244;28;20219;-83
2022/11/25 07:25:31;;;;;;;13.70;6.27;;;;;;;;;;4952249;28;20236;-85
2022/11/25 07:28:01;;;;;;;12.73;6.47;;;;;;;;;;4955842;28;20228;-83
2022/11/25 07:30:26;;;;;;;14.43;6.33;;;;;;;;;;4966947;28;20240;-85
2022/11/25 07:32:52;;;;;;;10.00;6.03;;;;;;;;;;4963347;28;20237;-85
2022/11/25 07:35:20;;;;;;;9.40;5.80;;;;;;;;;;4951138;28;20236;-86
2022/11/25 07:37:46;;;;;;;8.17;5.67;;;;;;;;;;4976588;28;20226;-85
2022/11/25 07:40:14;;;;;;;8.40;5.70;;;;;;;;;;4976176;28;20224;-86
2022/11/25 07:42:39;;;;;;;11.57;6.10;;;;;;;;;;4937066;28;20702;-84
2022/11/25 07:45:08;;;;;;;11.67;6.13;;;;;;;;;;4950733;28;20218;-84
2022/11/25 07:47:43;;;;;;;14.37;5.53;;;;;;;;;;4985853;28;20239;-85
2022/11/25 07:50:13;;;;;;;6.93;5.50;;;;;;;;;;4960818;28;20242;-85
2022/11/25 07:52:39;;;;;;;8.60;5.90;;;;;;;;;;4937989;28;20248;-85
2022/11/25 07:55:05;;;;;;;7.47;5.80;;;;;;;;;;4954393;28;20679;-85
2022/11/25 07:57:31;;;;;;;9.23;5.30;;;;;;;;;;4969993;28;20662;-83
2022/11/25 07:59:56;;;;;;;9.80;5.63;;;;;;;;;;4964885;28;20229;-84
2022/11/25 08:02:25;;;;;;;10.70;5.53;;;;;;;;;;4961411;28;20220;-87
2022/11/25 08:04:51;;;;;;;11.00;6.00;;;;;;;;;;4950688;28;20225;-84
2022/11/25 08:07:17;;;;;;;8.83;5.90;;;;;;;;;;4952708;28;20279;-83
2022/11/25 08:09:45;;;;;;;12.23;6.50;;;;;;;;;;4945603;28;20233;-84
2022/11/25 08:12:13;;;;;;;10.53;5.50;;;;;;;;;;4947011;28;20228;-85
2022/11/25 08:14:41;;;;;;;10.00;5.83;;;;;;;;;;4965123;28;20225;-83
2022/11/25 08:17:07;;;;;;;9.47;5.83;;;;;;;;;;4977815;28;20277;-82
2022/11/25 08:19:32;;;;;;;10.03;5.30;;;;;;;;;;4963862;28;20222;-84
2022/11/25 08:21:58;;;;;;;11.37;5.67;;;;;;;;;;4992488;28;20230;-85
2022/11/25 08:24:26;;;;;;;13.33;5.80;;;;;;;;;;4939842;28;20280;-85
2022/11/25 08:26:53;;;;;;;11.70;5.33;;;;;;;;;;4958401;28;20217;-83
2022/11/25 08:29:21;;;;;;;13.13;6.07;;;;;;;;;;4937601;28;20230;-84
2022/11/25 08:31:47;;;;;;;10.60;7.33;;;;;;;;;;4948714;28;20240;-85
2022/11/25 08:34:17;;;;;;;14.53;5.60;;;;;;;;;;4986104;28;20245;-83
2022/11/25 08:36:46;;;;;;;8.50;5.43;;;;;;;;;;4952704;28;20225;-82
2022/11/25 08:39:12;;;;;;;15.93;5.27;;;;;;;;;;4938356;28;20213;-84
2022/11/25 08:41:39;;;;;;;9.90;5.67;;;;;;;;;;4950853;28;20217;-84
2022/11/25 08:44:06;;;;;;;13.20;5.40;;;;;;;;;;4962841;28;20233;-85
2022/11/25 08:46:35;;;;;;;9.87;6.07;;;;;;;;;;4962879;28;20232;-85
2022/11/25 08:49:01;;;;;;;6.87;4.77;;;;;;;;;;4956848;28;20396;-83
2022/11/25 08:51:30;;;;;;;13.53;5.70;;;;;;;;;;4969613;28;20712;-84
2022/11/25 08:53:56;;;;;;;9.70;5.17;;;;;;;;;;4954002;28;20225;-83
2022/11/25 08:56:22;;;;;;;9.70;5.20;;;;;;;;;;4951441;28;20217;-85
2022/11/25 08:58:50;;;;;;;11.30;5.23;;;;;;;;;;4963673;28;20221;-83
2022/11/25 09:01:21;;;;;;;11.27;5.43;;;;;;;;;;4977444;28;20240;-80
2022/11/25 09:07:44;;;;;;;;;;;;;;;;;;;;;
2022/11/25 09:14:53;;;;;;;8.40;4.33;;;;;;;;;;4912288;29;20292;-81
2022/11/25 09:17:46;;;;;;;12.57;4.70;;;;;;;;;;4865070;29;20681;-80
2022/11/25 09:20:50;;;;;;;9.27;4.63;;;;;;;;;;4868748;29;20569;-80
2022/11/25 09:24:06;;;;;;;;;;;;;;;;;;;;;
2022/11/25 09:27:10;;;;;;;9.63;4.83;;;;;;;;;;4883394;29;20277;-78
2022/11/25 09:31:00;;;;;;;9.27;4.57;;;;;;;;;;4841608;29;20238;-79
2022/11/25 09:37:09;;;;;;;8.73;4.67;;;;;;;;;;4858568;29;20249;-81
2022/11/25 09:46:53;;;;;;;6.73;4.53;;;;;;;;;;4829401;29;20313;-83
2022/11/25 09:49:45;;;;;;;6.13;4.10;;;;;;;;;;4853472;29;20564;-80
2022/11/25 09:53:00;;;;;;;6.27;4.60;;;;;;;;;;4877802;29;20853;-80
2022/11/25 09:56:09;;;;;;;12.50;4.27;;;;;;;;;;4940828;28;20311;-79
2022/11/25 10:03:32;;;;;;;;;;;;;;;;;;;;;
2022/11/25 10:07:32;;;;;;;;;;;;;;;;;;;;;
2022/11/25 10:11:02;;;;;;;7.37;3.90;;;;;;;;;;4760437;29;20259;-78
2022/11/25 10:14:23;;;;;;;8.77;3.50;;;;;;;;;;4807745;29;20233;-80
2022/11/25 10:18:17;;;;;;;10.73;4.17;;;;;;;;;;4874209;28;20234;-77
2022/11/25 10:23:41;;;;;;;10.33;4.23;;;;;;;;;;4926797;28;20691;-78
2022/11/25 10:26:23;;;;;;;9.23;4.17;;;;;;;;;;4953800;28;20230;-78
2022/11/25 10:29:48;;;;;;;9.27;4.20;;;;;;;;;;4953150;28;20230;-78
2022/11/25 10:32:25;;;;;;;7.17;4.00;;;;;;;;;;4954956;28;20682;-79
2022/11/25 10:34:57;;;;;;;9.03;4.30;;;;;;;;;;4976670;28;20229;-80
2022/11/25 10:37:30;;;;;;;6.70;3.93;;;;;;;;;;4940697;28;20225;-79
2022/11/25 10:39:56;;;;;;;6.93;4.03;;;;;;;;;;4959102;28;20610;-80
2022/11/25 10:42:26;;;;;;;8.40;3.90;;;;;;;;;;4967154;28;20218;-79
2022/11/25 10:44:53;;;;;;;7.20;3.53;;;;;;;;;;4976055;28;20225;-80
2022/11/25 10:47:19;;;;;;;6.73;3.70;;;;;;;;;;4966589;28;20294;-78
2022/11/25 10:50:26;;;;;;;6.37;3.80;;;;;;;;;;5015798;28;20237;-80
2022/11/25 10:53:00;;;;;;;7.13;3.87;;;;;;;;;;5004644;28;20307;-84
2022/11/25 10:55:29;;;;;;;7.97;3.87;;;;;;;;;;4959951;28;20721;-83
2022/11/25 10:57:56;;;;;;;5.77;3.63;;;;;;;;;;4959037;28;20256;-84
2022/11/25 11:00:30;;;;;;;8.50;4.07;;;;;;;;;;4957044;28;20225;-82
2022/11/25 11:03:12;;;;;;;6.70;3.60;;;;;;;;;;5009795;28;20229;-87
2022/11/25 11:05:44;;;;;;;6.57;3.40;;;;;;;;;;4956850;28;20231;-84
2022/11/25 11:08:12;;;;;;;8.67;3.63;;;;;;;;;;4987560;28;20239;-83
2022/11/25 11:10:38;;;;;;;6.43;3.50;;;;;;;;;;4986982;28;20228;-82
2022/11/25 11:13:19;;;;;;;5.17;3.37;;;;;;;;;;4935910;28;20221;-85
2022/11/25 11:15:47;;;;;;;11.50;3.87;;;;;;;;;;4995710;28;20260;-83
2022/11/25 11:18:29;;;;;;;7.80;3.60;;;;;;;;;;5001929;28;20228;-85
2022/11/25 11:21:01;;;;;;;9.87;3.60;;;;;;;;;;4983042;28;20221;-85
2022/11/25 11:23:29;;;;;;;8.00;3.70;;;;;;;;;;4975556;28;20230;-85
2022/11/25 11:26:05;;;;;;;8.17;3.30;;;;;;;;;;4975651;28;20238;-86
2022/11/25 11:28:34;;;;;;;6.70;3.20;;;;;;;;;;4999029;28;20220;-84
2022/11/25 11:31:17;;;;;;;7.70;3.20;;;;;;;;;;4992697;28;20255;-86
2022/11/25 11:33:46;;;;;;;7.60;3.33;;;;;;;;;;5002135;28;20248;-83
2022/11/25 11:36:16;;;;;;;8.53;3.30;;;;;;;;;;4992206;28;20237;-84
2022/11/25 11:38:56;;;;;;;6.80;3.00;;;;;;;;;;4982778;28;20304;-81
2022/11/25 11:41:27;;;;;;;8.17;3.27;;;;;;;;;;4975292;28;20251;-85
2022/11/25 11:44:17;;;;;;;6.50;3.10;;;;;;;;;;4998745;28;20226;-86
2022/11/25 11:46:58;;;;;;;6.40;3.30;;;;;;;;;;4983832;28;20229;-84
2022/11/25 11:49:34;;;;;;;7.70;3.70;;;;;;;;;;4995532;28;20261;-85
2022/11/25 11:52:12;;;;;;;7.47;3.43;;;;;;;;;;4975457;28;20224;-82
2022/11/25 11:55:29;;;;;;;5.23;2.90;;;;;;;;;;4995499;28;20224;-83
2022/11/25 11:58:30;;;;;;;9.53;6.00;;;;;;;;;;4915387;28;20245;-82
2022/11/25 12:00:56;;;;;;;7.77;3.77;;;;;;;;;;5001036;28;20220;-82
2022/11/25 12:03:22;;;;;;;7.40;3.20;;;;;;;;;;4977834;28;20228;-82
2022/11/25 12:05:53;;;;;;;6.87;3.23;;;;;;;;;;4992907;28;20344;-83
2022/11/25 12:08:27;;;;;;;6.27;3.67;;;;;;;;;;4982029;28;20225;-82
2022/11/25 12:10:55;;;;;;;9.40;7.13;;;;;;;;;;4982975;28;20237;-82
2022/11/25 12:13:34;;;;;;;15.33;10.87;;;;;;;;;;4966824;28;20224;-81
2022/11/25 12:16:08;;;;;;;11.23;5.07;;;;;;;;;;4967546;28;20599;-81
2022/11/25 12:18:35;;;;;;;7.47;4.27;;;;;;;;;;4987705;28;20694;-83
2022/11/25 12:21:04;;;;;;;8.07;3.93;;;;;;;;;;4982234;28;20240;-82
2022/11/25 12:24:02;;;;;;;7.10;4.10;;;;;;;;;;4999798;28;20718;-83
2022/11/25 12:26:59;;;;;;;10.93;4.47;;;;;;;;;;5001312;28;20245;-83
2022/11/25 12:29:47;;;;;;;7.13;4.20;;;;;;;;;;4986603;28;20237;-83
2022/11/25 12:32:40;;;;;;;7.90;4.10;;;;;;;;;;4989536;28;20580;-82
2022/11/25 12:35:11;;;;;;;8.00;4.03;;;;;;;;;;4971821;28;20257;-83
2022/11/25 12:37:43;;;;;;;6.80;3.87;;;;;;;;;;4952999;28;20225;-82
2022/11/25 12:40:14;;;;;;;6.60;4.20;;;;;;;;;;4966845;28;20239;-83
2022/11/25 12:42:59;;;;;;;8.00;4.07;;;;;;;;;;4960180;28;20603;-82
2022/11/25 12:45:25;;;;;;;6.43;3.43;;;;;;;;;;4954093;28;20647;-83
2022/11/25 12:47:51;;;;;;;8.10;3.97;;;;;;;;;;5018699;28;20268;-84
2022/11/25 12:50:29;;;;;;;7.30;4.13;;;;;;;;;;4973320;28;20665;-84
2022/11/25 12:53:16;;;;;;;8.60;3.77;;;;;;;;;;4969938;28;20235;-82
2022/11/25 12:55:42;;;;;;;6.07;3.67;;;;;;;;;;5012093;28;20298;-84
2022/11/25 12:58:26;;;;;;;6.53;4.00;;;;;;;;;;4959701;28;20974;-82
2022/11/25 13:01:05;;;;;;;5.97;4.27;;;;;;;;;;5014288;28;20550;-82
2022/11/25 13:04:02;;;;;;;6.90;4.60;;;;;;;;;;4980413;28;20648;-84
2022/11/25 13:06:37;;;;;;;8.63;4.47;;;;;;;;;;4998160;28;20229;-81
2022/11/25 13:09:28;;;;;;;9.47;5.67;;;;;;;;;;4984701;28;20248;-80
2022/11/25 13:12:12;;;;;;;13.73;6.07;;;;;;;;;;4981124;28;20224;-83
2022/11/25 13:15:03;;;;;;;10.07;6.50;;;;;;;;;;5001447;28;20225;-82
2022/11/25 13:17:28;;;;;;;7.80;5.03;;;;;;;;;;5026397;28;20294;-82
2022/11/25 13:20:31;;;;;;;9.87;5.00;;;;;;;;;;4980296;28;20246;-84
2022/11/25 13:23:07;;;;;;;8.30;5.57;;;;;;;;;;4992997;28;20304;-83
2022/11/25 13:25:36;;;;;;;8.70;5.87;;;;;;;;;;4998207;28;20237;-82
2022/11/25 13:28:23;;;;;;;9.40;5.90;;;;;;;;;;4969531;28;20253;-83
2022/11/25 13:30:51;;;;;;;6.77;5.17;;;;;;;;;;4973168;28;20230;-82
2022/11/25 13:33:16;;;;;;;6.97;5.10;;;;;;;;;;4943235;28;20214;-83
2022/11/25 13:35:54;;;;;;;10.57;6.23;;;;;;;;;;4981738;28;20248;-84
2022/11/25 13:38:29;;;;;;;8.57;5.83;;;;;;;;;;4961786;28;20326;-83
2022/11/25 13:41:24;;;;;;;9.87;6.50;;;;;;;;;;5002136;28;20232;-83
2022/11/25 13:43:52;;;;;;;7.43;5.53;;;;;;;;;;4972969;28;20234;-82
2022/11/25 13:46:35;;;;;;;11.47;6.67;;;;;;;;;;5003289;28;20239;-83
2022/11/25 13:49:01;;;;;;;8.43;5.63;;;;;;;;;;4960910;28;20262;-82
2022/11/25 13:51:30;;;;;;;8.63;5.93;;;;;;;;;;4952025;28;20246;-84
2022/11/25 13:54:00;;;;;;;9.83;6.07;;;;;;;;;;4942669;28;20718;-84
2022/11/25 13:56:28;;;;;;;9.50;6.10;;;;;;;;;;4951564;28;20229;-84
2022/11/25 13:59:09;;;;;;;7.43;6.17;;;;;;;;;;4981050;28;20772;-83
2022/11/25 14:01:35;;;;;;;7.80;6.97;;;;;;;;;;5016959;28;20275;-83
2022/11/25 14:04:03;;;;;;;14.17;7.57;;;;;;;;;;4950434;28;20230;-84
2022/11/25 14:06:31;;;;;;;9.33;7.23;;;;;;;;;;4993820;28;20217;-84
2022/11/25 14:09:16;;;;;;;14.40;9.57;;;;;;;;;;4983693;28;20257;-83
2022/11/25 14:12:06;;;;;;;11.03;8.13;;;;;;;;;;4983645;28;20223;-83
2022/11/25 14:15:00;;;;;;;12.90;8.63;;;;;;;;;;5001266;28;20225;-83
2022/11/25 14:17:40;;;;;;;9.63;7.70;;;;;;;;;;4990212;28;20859;-84
2022/11/25 14:20:13;;;;;;;10.30;7.93;;;;;;;;;;4997853;28;20650;-83
2022/11/25 14:23:29;;;;;;;11.67;7.80;;;;;;;;;;4972595;28;20232;-84
2022/11/25 14:25:56;;;;;;;11.43;8.30;;;;;;;;;;4962237;28;20232;-84
2022/11/25 14:28:33;;;;;;;9.93;7.97;;;;;;;;;;4947217;28;20309;-84
2022/11/25 14:31:02;;;;;;;9.33;7.83;;;;;;;;;;4997452;28;20316;-83
2022/11/25 14:33:32;;;;;;;10.33;9.00;;;;;;;;;;4967028;28;20228;-84
2022/11/25 14:36:04;;;;;;;12.13;9.67;;;;;;;;;;4962404;28;20611;-84
2022/11/25 14:38:49;;;;;;;13.33;9.57;;;;;;;;;;4961335;28;20218;-84
2022/11/25 14:41:37;;;;;;;13.23;9.40;;;;;;;;;;4982406;28;20291;-83
2022/11/25 14:44:04;;;;;;;11.53;9.03;;;;;;;;;;4979190;28;20676;-83
2022/11/25 14:46:30;;;;;;;12.53;10.30;;;;;;;;;;4955134;28;20233;-82
2022/11/25 14:48:59;;;;;;;11.43;9.43;;;;;;;;;;5010565;28;20325;-84
2022/11/25 14:51:29;;;;;;;14.20;10.70;;;;;;;;;;4970311;28;20220;-84
2022/11/25 14:53:56;;;;;;;14.00;9.53;;;;;;;;;;4953002;28;20225;-84
2022/11/25 14:56:32;;;;;;;13.10;9.50;;;;;;;;;;4952266;28;20229;-84
2022/11/25 14:58:57;;;;;;;11.87;9.20;;;;;;;;;;4966641;28;20635;-85
2022/11/25 15:01:27;;;;;;;11.33;9.53;;;;;;;;;;4966666;28;20252;-84
2022/11/25 15:04:11;;;;;;;14.23;10.00;;;;;;;;;;4979903;28;20222;-85
2022/11/25 15:06:44;;;;;;;10.70;9.60;;;;;;;;;;4983891;28;20232;-83
2022/11/25 15:09:29;;;;;;;13.03;9.23;;;;;;;;;;4973903;28;20343;-85
2022/11/25 15:12:02;;;;;;;12.73;10.50;;;;;;;;;;4965153;28;20880;-85
2022/11/25 15:14:31;;;;;;;14.53;11.73;;;;;;;;;;4981710;28;20229;-84
2022/11/25 15:16:57;;;;;;;14.87;11.30;;;;;;;;;;4959357;28;20243;-84
2022/11/25 15:19:25;;;;;;;14.07;10.80;;;;;;;;;;4960992;28;20229;-84
2022/11/25 15:22:01;;;;;;;10.97;9.80;;;;;;;;;;4982417;28;20228;-84
2022/11/25 15:24:28;;;;;;;13.20;8.73;;;;;;;;;;5022359;28;20228;-85
2022/11/25 15:27:00;;;;;;;13.53;8.63;;;;;;;;;;5001086;28;20244;-84
2022/11/25 15:29:29;;;;;;;9.90;8.53;;;;;;;;;;5017687;28;21189;-84
2022/11/25 15:31:55;;;;;;;10.20;8.40;;;;;;;;;;4975676;28;20218;-84
2022/11/25 15:34:23;;;;;;;9.53;7.57;;;;;;;;;;4976182;28;20229;-85
2022/11/25 15:36:52;;;;;;;9.73;8.47;;;;;;;;;;4987019;28;20232;-85
2022/11/25 15:39:20;;;;;;;12.10;8.50;;;;;;;;;;4943320;28;20645;-86
2022/11/25 15:42:13;;;;;;;9.50;8.53;;;;;;;;;;4980136;28;20228;-85